Search for airport 
image banner adimage banner adimage banner ad
image banner ad

80CL - Blythe Service Center

Located in Blythe, United States

ICAO - 80CL, IATA -

Data provided by Airmate  

General information

Coordinates: N33°36'18" W114°36'8"
Elevation is 297 feet MSL.
Magnetic variation is 13° East
View others Airports in California

Operational data

Special qualification required
Current time UTC:
Current local time:
Weather at : KBLH - Blythe ( 11 km )
METAR: KBLH 141052Z AUTO 16004KT 10SM CLR 26/04 A2977 RMK AO2 SLP073 T02610044
TAF: KBLH 140530Z 1406/1506 23007KT P6SM SKC FM140800 33004KT P6SM SKC FM141700 17007KT P6SM FEW180 FEW250
View NOTAMs / SUP AIP / TFR affecting this airport [VIEW]
Communications frequencies: [VIEW]

Runways:

Airport contact information

Address: Blythe United States

Satellite view of 80CL